PWSweather.com
Personal Weather Stations
Station Observations
MAHIABEACH
Mahia Beach, Mahia Peninsula Hawkes Bay -NZ 4108

Mahia BeachMahia Peninsula Hawkes Bay -NZ 4108

Lat: -39.08872, Lon: 177.878209

Elevation: 72

Station Type: WS2083

http://wairoa.net/mahia/index.htm

Latest ConditionsUpdated 7:00:06 PM GMT+12:12 Tuesday, Jun 27, 2017
Currently Today's Max Today's Min Today's Average
Temperature 52.3°F11.3°C 55.4°F13.0°C 51.1°F10.6°C 52.9°F11.6°C
Dew Point 47.3°F8.5°C 49.0°F9.4°C 46.0°F7.8°C 47.8°F8.8°C
Winds 2.0 mph N3.2 kmh N 9.6 mph SE15.4 kmh SE - 3.7 mph 6.0 kmh
Wind Gusts 5.4 mph8.7 kmh 14.5 mph23.3 kmh - -
Humidity 83% 89% 73% 83%
Pressure 30.07 in1018.3 mb 30.07 in1018.3 mb 29.98 in1015.2 mb -
Precipitation - 0.21 in5.3 mm - -
Hour Temp Dew Point Humidity Winds Wind Gusts Pressure Precip Precip Rate Daily Precip Total
07:00 PM 52.3°F11.3°C 47.3°F8.5°C 83% 2.0 mph N3.2 kmh N 5.4 mph8.7 kmh 30.07 in1018.3 mb 0.00 in0.0 mm 0.00 in0.0 mm 0.21 in5.3 mm
06:45 PM 51.8°F11.0°C 46.5°F8.1°C 82% Calm Calm 0.7 mph1.1 kmh 30.07 in1018.3 mb 0.00 in0.0 mm 0.00 in0.0 mm 0.21 in5.3 mm
06:30 PM 51.6°F10.9°C 46.6°F8.1°C 83% 0.1 mph N0.2 kmh N 1.6 mph2.6 kmh 30.07 in1018.3 mb 0.00 in0.0 mm 0.00 in0.0 mm 0.21 in5.3 mm
06:15 PM 51.1°F10.6°C 46.1°F7.8°C 83% 0.3 mph NNE0.5 kmh NNE 2.2 mph3.5 kmh 30.07 in1018.3 mb 0.00 in0.0 mm 0.00 in0.0 mm 0.21 in5.3 mm
06:00 PM 51.3°F10.7°C 46.0°F7.8°C 82% 1.3 mph NE2.1 kmh NE 3.1 mph5.0 kmh 30.06 in1017.9 mb 0.00 in0.0 mm 0.00 in0.0 mm 0.21 in5.3 mm
05:45 PM 51.4°F10.8°C 46.1°F7.8°C 82% 1.2 mph NE1.9 kmh NE 2.2 mph3.5 kmh 30.05 in1017.6 mb 0.00 in0.0 mm 0.00 in0.0 mm 0.21 in5.3 mm
05:30 PM 52.0°F11.1°C 46.3°F7.9°C 81% 1.6 mph ENE2.6 kmh ENE 3.8 mph6.1 kmh 30.05 in1017.6 mb 0.00 in0.0 mm 0.00 in0.0 mm 0.21 in5.3 mm
05:15 PM 52.5°F11.4°C 46.5°F8.1°C 80% 1.1 mph ENE1.8 kmh ENE 3.1 mph5.0 kmh 30.05 in1017.6 mb 0.00 in0.0 mm 0.00 in0.0 mm 0.21 in5.3 mm
05:00 PM 53.2°F11.8°C 46.9°F8.3°C 79% 1.6 mph E2.6 kmh E 3.8 mph6.1 kmh 30.05 in1017.6 mb 0.00 in0.0 mm 0.00 in0.0 mm 0.21 in5.3 mm
04:45 PM 54.0°F12.2°C 46.6°F8.1°C 76% 1.1 mph SSE1.8 kmh SSE 4.5 mph7.2 kmh 30.04 in1017.3 mb 0.00 in0.0 mm 0.00 in0.0 mm 0.21 in5.3 mm
04:30 PM 55.4°F13.0°C 47.6°F8.7°C 75% 2.8 mph ESE4.5 kmh ESE 4.5 mph7.2 kmh 30.05 in1017.6 mb 0.00 in0.0 mm 0.00 in0.0 mm 0.21 in5.3 mm
04:15 PM 55.2°F12.9°C 47.8°F8.8°C 76% 3.8 mph SE6.1 kmh SE 7.6 mph12.2 kmh 30.04 in1017.3 mb 0.00 in0.0 mm 0.00 in0.0 mm 0.21 in5.3 mm
04:00 PM 54.3°F12.4°C 47.6°F8.7°C 78% 3.1 mph ESE5.0 kmh ESE 6.0 mph9.7 kmh 30.04 in1017.3 mb 0.00 in0.0 mm 0.00 in0.0 mm 0.21 in5.3 mm
03:45 PM 55.0°F12.8°C 46.6°F8.1°C 73% 6.9 mph SE11.1 kmh SE 9.2 mph14.8 kmh 30.05 in1017.6 mb 0.00 in0.0 mm 0.00 in0.0 mm 0.21 in5.3 mm
03:30 PM 55.0°F12.8°C 46.6°F8.1°C 73% 6.9 mph SE11.1 kmh SE 9.2 mph14.8 kmh 30.04 in1017.3 mb 0.00 in0.0 mm 0.00 in0.0 mm 0.21 in5.3 mm
03:15 PM 55.0°F12.8°C 46.6°F8.1°C 73% 6.9 mph SE11.1 kmh SE 9.2 mph14.8 kmh 30.04 in1017.3 mb 0.00 in0.0 mm 0.00 in0.0 mm 0.21 in5.3 mm
03:00 PM 55.0°F12.8°C 46.6°F8.1°C 73% 6.9 mph SE11.1 kmh SE 9.2 mph14.8 kmh 30.04 in1017.3 mb 0.00 in0.0 mm 0.00 in0.0 mm 0.21 in5.3 mm
02:45 PM 55.0°F12.8°C 46.6°F8.1°C 73% 6.9 mph SE11.1 kmh SE 9.2 mph14.8 kmh 30.04 in1017.3 mb 0.00 in0.0 mm 0.00 in0.0 mm 0.21 in5.3 mm
02:30 PM 54.0°F12.2°C 47.6°F8.7°C 79% 6.9 mph SE11.1 kmh SE 8.3 mph13.4 kmh 30.03 in1016.9 mb 0.00 in0.0 mm 0.00 in0.0 mm 0.21 in5.3 mm
02:15 PM 54.0°F12.2°C 47.6°F8.7°C 79% 6.9 mph SE11.1 kmh SE 8.3 mph13.4 kmh 30.03 in1016.9 mb 0.00 in0.0 mm 0.00 in0.0 mm 0.21 in5.3 mm
02:00 PM 54.0°F12.2°C 47.6°F8.7°C 79% 6.9 mph SE11.1 kmh SE 8.3 mph13.4 kmh 30.03 in1016.9 mb 0.00 in0.0 mm 0.00 in0.0 mm 0.21 in5.3 mm
01:45 PM 54.0°F12.2°C 47.6°F8.7°C 79% 6.9 mph SE11.1 kmh SE 8.3 mph13.4 kmh 30.03 in1016.9 mb 0.00 in0.0 mm 0.00 in0.0 mm 0.21 in5.3 mm
01:30 PM 54.0°F12.2°C 47.6°F8.7°C 79% 6.9 mph SE11.1 kmh SE 8.3 mph13.4 kmh 30.03 in1016.9 mb 0.00 in0.0 mm 0.00 in0.0 mm 0.21 in5.3 mm
01:15 PM 54.0°F12.2°C 47.6°F8.7°C 79% 6.9 mph SE11.1 kmh SE 8.3 mph13.4 kmh 30.03 in1016.9 mb 0.00 in0.0 mm 0.00 in0.0 mm 0.21 in5.3 mm
01:00 PM 54.0°F12.2°C 47.6°F8.7°C 79% 6.9 mph SE11.1 kmh SE 8.3 mph13.4 kmh 30.03 in1016.9 mb 0.00 in0.0 mm 0.00 in0.0 mm 0.21 in5.3 mm
12:45 PM 54.0°F12.2°C 47.6°F8.7°C 79% 6.9 mph SE11.1 kmh SE 8.3 mph13.4 kmh 30.04 in1017.3 mb 0.00 in0.0 mm 0.00 in0.0 mm 0.21 in5.3 mm
12:30 PM 54.0°F12.2°C 47.6°F8.7°C 79% 6.9 mph SE11.1 kmh SE 8.3 mph13.4 kmh 30.03 in1016.9 mb 0.00 in0.0 mm 0.00 in0.0 mm 0.21 in5.3 mm
12:15 PM 53.8°F12.1°C 47.4°F8.6°C 79% 9.6 mph SE15.4 kmh SE 14.5 mph23.3 kmh 30.03 in1016.9 mb 0.00 in0.0 mm 0.00 in0.0 mm 0.21 in5.3 mm
12:00 PM 53.2°F11.8°C 47.6°F8.7°C 81% 3.8 mph S6.1 kmh S 6.9 mph11.1 kmh 30.04 in1017.3 mb 0.00 in0.0 mm 0.00 in0.0 mm 0.21 in5.3 mm
11:45 AM 53.2°F11.8°C 47.6°F8.7°C 81% 3.8 mph S6.1 kmh S 6.9 mph11.1 kmh 30.04 in1017.3 mb 0.00 in0.0 mm 0.00 in0.0 mm 0.21 in5.3 mm
11:30 AM 53.2°F11.8°C 47.6°F8.7°C 81% 3.8 mph S6.1 kmh S 6.9 mph11.1 kmh 30.05 in1017.6 mb 0.00 in0.0 mm 0.00 in0.0 mm 0.21 in5.3 mm
11:15 AM 53.2°F11.8°C 47.6°F8.7°C 81% 3.8 mph S6.1 kmh S 6.9 mph11.1 kmh 30.05 in1017.6 mb 0.00 in0.0 mm 0.00 in0.0 mm 0.21 in5.3 mm
11:00 AM 53.2°F11.8°C 47.6°F8.7°C 81% 3.8 mph S6.1 kmh S 6.9 mph11.1 kmh 30.05 in1017.6 mb 0.00 in0.0 mm 0.00 in0.0 mm 0.21 in5.3 mm
10:45 AM 53.2°F11.8°C 47.6°F8.7°C 81% 3.8 mph S6.1 kmh S 6.9 mph11.1 kmh 30.05 in1017.6 mb 0.00 in0.0 mm 0.00 in0.0 mm 0.21 in5.3 mm
10:30 AM 53.2°F11.8°C 47.6°F8.7°C 81% 3.8 mph S6.1 kmh S 6.9 mph11.1 kmh 30.06 in1017.9 mb 0.00 in0.0 mm 0.00 in0.0 mm 0.21 in5.3 mm
10:15 AM 53.2°F11.8°C 47.6°F8.7°C 81% 3.8 mph S6.1 kmh S 6.9 mph11.1 kmh 30.05 in1017.6 mb 0.00 in0.0 mm 0.00 in0.0 mm 0.21 in5.3 mm
10:00 AM 54.7°F12.6°C 47.6°F8.7°C 77% 6.9 mph SE11.1 kmh SE 9.2 mph14.8 kmh 30.05 in1017.6 mb 0.00 in0.0 mm 0.00 in0.0 mm 0.21 in5.3 mm
09:45 AM 54.7°F12.6°C 47.6°F8.7°C 77% 5.9 mph SSE9.5 kmh SSE 9.8 mph15.8 kmh 30.05 in1017.6 mb 0.00 in0.0 mm 0.00 in0.0 mm 0.21 in5.3 mm
09:30 AM 54.7°F12.6°C 48.3°F9.1°C 79% 2.7 mph SE4.3 kmh SE 5.4 mph8.7 kmh 30.05 in1017.6 mb 0.00 in0.0 mm 0.00 in0.0 mm 0.21 in5.3 mm
09:15 AM 53.4°F11.9°C 47.4°F8.6°C 80% 4.4 mph SSE7.1 kmh SSE 9.2 mph14.8 kmh 30.04 in1017.3 mb 0.00 in0.0 mm 0.00 in0.0 mm 0.21 in5.3 mm
09:00 AM 53.8°F12.1°C 48.1°F8.9°C 81% 5.1 mph SE8.2 kmh SE 10.7 mph17.2 kmh 30.04 in1017.3 mb 0.00 in0.0 mm 0.00 in0.0 mm 0.21 in5.3 mm
08:45 AM 52.7°F11.5°C 48.6°F9.2°C 86% 3.5 mph SSE5.6 kmh SSE 10.7 mph17.2 kmh 30.04 in1017.3 mb 0.01 in0.3 mm 0.00 in0.0 mm 0.21 in5.3 mm
08:30 AM 52.2°F11.2°C 48.1°F8.9°C 86% 1.4 mph NE2.3 kmh NE 4.5 mph7.2 kmh 30.04 in1017.3 mb 0.01 in0.3 mm 0.00 in0.0 mm 0.21 in5.3 mm
08:15 AM 52.2°F11.2°C 48.1°F8.9°C 86% 1.6 mph NNE2.6 kmh NNE 4.5 mph7.2 kmh 30.03 in1016.9 mb 0.01 in0.3 mm 0.00 in0.0 mm 0.21 in5.3 mm
08:00 AM 51.8°F11.0°C 47.8°F8.8°C 86% 3.6 mph S5.8 kmh S 9.8 mph15.8 kmh 30.03 in1016.9 mb 0.01 in0.3 mm 0.01 in0.3 mm 0.21 in5.3 mm
07:45 AM 51.4°F10.8°C 47.7°F8.7°C 87% 1.8 mph NE2.9 kmh NE 5.4 mph8.7 kmh 30.03 in1016.9 mb 0.00 in0.0 mm 0.00 in0.0 mm 0.20 in5.1 mm
07:30 AM 51.6°F10.9°C 47.9°F8.8°C 87% 3.2 mph SSE5.1 kmh SSE 9.8 mph15.8 kmh 30.02 in1016.6 mb 0.00 in0.0 mm 0.00 in0.0 mm 0.20 in5.1 mm
07:15 AM 51.6°F10.9°C 47.9°F8.8°C 87% 3.0 mph SE4.8 kmh SE 9.2 mph14.8 kmh 30.02 in1016.6 mb 0.00 in0.0 mm 0.00 in0.0 mm 0.20 in5.1 mm
07:00 AM 52.0°F11.1°C 48.2°F9.0°C 87% 4.2 mph S6.8 kmh S 10.7 mph17.2 kmh 30.02 in1016.6 mb 0.01 in0.3 mm 0.00 in0.0 mm 0.20 in5.1 mm
06:45 AM 51.8°F11.0°C 48.4°F9.1°C 88% 1.6 mph SSE2.6 kmh SSE 4.5 mph7.2 kmh 30.02 in1016.6 mb 0.04 in1.0 mm 0.00 in0.0 mm 0.20 in5.1 mm
06:30 AM 52.0°F11.1°C 48.5°F9.2°C 88% 3.6 mph SE5.8 kmh SE 6.9 mph11.1 kmh 30.01 in1016.3 mb 0.04 in1.0 mm 0.00 in0.0 mm 0.20 in5.1 mm
06:15 AM 51.8°F11.0°C 48.7°F9.3°C 89% 3.6 mph SE5.8 kmh SE 7.6 mph12.2 kmh 30.00 in1015.9 mb 0.06 in1.5 mm 0.04 in1.0 mm 0.20 in5.1 mm
06:00 AM 51.8°F11.0°C 48.7°F9.3°C 89% 5.0 mph SE8.0 kmh SE 8.3 mph13.4 kmh 30.00 in1015.9 mb 0.05 in1.3 mm 0.04 in1.0 mm 0.19 in4.8 mm
05:45 AM 52.0°F11.1°C 48.5°F9.2°C 88% 4.1 mph SSE6.6 kmh SSE 9.2 mph14.8 kmh 30.00 in1015.9 mb 0.02 in0.5 mm 0.04 in1.0 mm 0.17 in4.3 mm
05:30 AM 52.0°F11.1°C 48.5°F9.2°C 88% 4.6 mph SSE7.4 kmh SSE 9.8 mph15.8 kmh 30.00 in1015.9 mb 0.01 in0.3 mm 0.04 in1.0 mm 0.15 in3.8 mm
05:15 AM 52.2°F11.2°C 49.0°F9.4°C 89% 5.6 mph S9.0 kmh S 12.1 mph19.5 kmh 30.00 in1015.9 mb 0.00 in0.0 mm 0.00 in0.0 mm 0.14 in3.6 mm
05:00 AM 52.0°F11.1°C 48.8°F9.3°C 89% 6.1 mph SSE9.8 kmh SSE 11.4 mph18.3 kmh 29.99 in1015.6 mb 0.01 in0.3 mm 0.00 in0.0 mm 0.14 in3.6 mm
04:45 AM 52.0°F11.1°C 48.8°F9.3°C 89% 4.3 mph SSE6.9 kmh SSE 10.7 mph17.2 kmh 29.99 in1015.6 mb 0.02 in0.5 mm 0.00 in0.0 mm 0.14 in3.6 mm
04:30 AM 52.2°F11.2°C 49.0°F9.4°C 89% 3.0 mph SE4.8 kmh SE 7.6 mph12.2 kmh 29.98 in1015.2 mb 0.02 in0.5 mm 0.00 in0.0 mm 0.14 in3.6 mm
04:15 AM 52.0°F11.1°C 48.8°F9.3°C 89% 4.4 mph S7.1 kmh S 8.3 mph13.4 kmh 29.98 in1015.2 mb 0.07 in1.8 mm 0.00 in0.0 mm 0.14 in3.6 mm
04:00 AM 52.0°F11.1°C 48.8°F9.3°C 89% 1.5 mph S2.4 kmh S 3.8 mph6.1 kmh 29.98 in1015.2 mb 0.08 in2.0 mm 0.00 in0.0 mm 0.13 in3.3 mm
03:45 AM 52.0°F11.1°C 48.5°F9.2°C 88% 2.2 mph E3.5 kmh E 3.8 mph6.1 kmh 29.99 in1015.6 mb 0.08 in2.0 mm 0.00 in0.0 mm 0.12 in3.0 mm
03:30 AM 52.0°F11.1°C 48.5°F9.2°C 88% 1.7 mph E2.7 kmh E 5.4 mph8.7 kmh 30.00 in1015.9 mb 0.09 in2.3 mm 0.16 in4.1 mm 0.12 in3.0 mm
03:15 AM 52.0°F11.1°C 48.5°F9.2°C 88% 1.5 mph SW2.4 kmh SW 3.8 mph6.1 kmh 29.99 in1015.6 mb 0.05 in1.3 mm 0.04 in1.0 mm 0.07 in1.8 mm
03:00 AM 52.2°F11.2°C 48.7°F9.3°C 88% 2.3 mph E3.7 kmh E 3.8 mph6.1 kmh 29.99 in1015.6 mb 0.04 in1.0 mm 0.03 in0.8 mm 0.05 in1.3 mm
02:45 AM 52.2°F11.2°C 48.7°F9.3°C 88% 3.8 mph SE6.1 kmh SE 8.3 mph13.4 kmh 29.99 in1015.6 mb 0.02 in0.5 mm 0.00 in0.0 mm 0.04 in1.0 mm
02:30 AM 52.0°F11.1°C 48.5°F9.2°C 88% Calm Calm -- 29.99 in1015.6 mb 0.02 in0.5 mm 0.00 in0.0 mm 0.02 in0.5 mm
02:15 AM 52.0°F11.1°C 48.5°F9.2°C 88% 1.1 mph WNW1.8 kmh WNW 3.8 mph6.1 kmh 29.99 in1015.6 mb 0.02 in0.5 mm 0.04 in1.0 mm 0.02 in0.5 mm
02:00 AM 52.2°F11.2°C 48.7°F9.3°C 88% 1.6 mph E2.6 kmh E 3.8 mph6.1 kmh 29.99 in1015.6 mb 0.01 in0.3 mm 0.00 in0.0 mm 0.01 in0.3 mm
01:45 AM 52.2°F11.2°C 48.7°F9.3°C 88% 2.1 mph ESE3.4 kmh ESE 5.4 mph8.7 kmh 29.98 in1015.2 mb 0.01 in0.3 mm 0.04 in1.0 mm 0.01 in0.3 mm
01:30 AM 52.2°F11.2°C 48.4°F9.1°C 87% 1.1 mph ESE1.8 kmh ESE 3.8 mph6.1 kmh 29.99 in1015.6 mb 0.00 in0.0 mm 0.00 in0.0 mm 0.00 in0.0 mm
01:15 AM 52.3°F11.3°C 48.6°F9.2°C 87% 2.3 mph E3.7 kmh E 6.0 mph9.7 kmh 29.99 in1015.6 mb 0.00 in0.0 mm 0.00 in0.0 mm 0.00 in0.0 mm
01:00 AM 52.5°F11.4°C 48.5°F9.2°C 86% 2.6 mph E4.2 kmh E 7.6 mph12.2 kmh 29.98 in1015.2 mb 0.00 in0.0 mm 0.00 in0.0 mm 0.00 in0.0 mm
12:45 AM 52.5°F11.4°C 48.5°F9.2°C 86% 2.2 mph ESE3.5 kmh ESE 4.5 mph7.2 kmh 29.98 in1015.2 mb 0.00 in0.0 mm 0.00 in0.0 mm 0.00 in0.0 mm
12:30 AM 52.5°F11.4°C 48.5°F9.2°C 86% 2.1 mph E3.4 kmh E 5.4 mph8.7 kmh 29.99 in1015.6 mb 0.00 in0.0 mm 0.00 in0.0 mm 0.00 in0.0 mm
12:15 AM 52.3°F11.3°C 48.3°F9.1°C 86% 1.9 mph ENE3.1 kmh ENE 4.5 mph7.2 kmh 29.99 in1015.6 mb 0.00 in0.0 mm 0.00 in0.0 mm 0.00 in0.0 mm
12:00 AM 52.3°F11.3°C 48.6°F9.2°C 87% 2.5 mph ENE4.0 kmh ENE 5.4 mph8.7 kmh 29.98 in1015.2 mb 0.00 in0.0 mm 0.00 in0.0 mm 0.00 in0.0 mm